Hibbing, MN (55746)

8:10 PM CST on February 09, 2016 (GMT -0600)
Chisholm-hibbing | | Change Station
CLOSE
Current Station
Airport
Location: Hibbing,
Elevation: 1352 ft
Nearby Weather Stations
Active Advisory: Wind Chill Advisory

Elev 1352 ft 47.39 °N, 92.84 °W | Updated 17 minutes ago

Clear
Clear
-2 °F
Feels Like -19 °F
N
10
Wind Variable Wind from NW

Today
High -- | Low -- °F
--% Chance of Precip.
Yesterday
High -- | Low -- °F
Precip. -- in
Pressure 30.22 in
Visibility 10.0 miles
Clouds Clear
Windchill -19 °F
Dew Point -9 °F
Humidity 72%
Rainfall 0.00 in
Snow Depth Not available.
7:27 AM 5:25 PM
Waxing Crescent, 3% visible
METAR KHIB 100153Z AUTO 32009KT 10SM CLR M19/M23 A3009 RMK AO2 SLP233 T11891228
Pressure 30.22 in
Visibility 10.0 miles
Clouds Clear
Windchill -19 °F
Dew Point -9 °F
Humidity 72%
Rainfall 0.00 in
Snow Depth Not available.
7:27 AM 5:25 PM
Waxing Crescent, 3% visible
METAR KHIB 100153Z AUTO 32009KT 10SM CLR M19/M23 A3009 RMK AO2 SLP233 T11891228

10-Day Weather Forecast

Almanac

Astronomy

Feb. 09, 2016 Rise Set
Actual Time
Civil Twilight
Nautical Twilight
Astronomical Twilight
Moon
Length of Visible Light
Length of Day
Tomorrow will be .
, % of the Moon is Illuminated

Today's Extremes

State Highs State Lows

Community

WunderPhotos

Upload Photos

1,891,760 photos uploaded!

WunderBlog® & News

Nearby

Air Quality

  Air Quality AQ Index Pollutant
Not available.

Snow Depth

Station Depth Elevation

Earthquake Activity

City Distance Mag. Time & Date
Minimum magnitude displayed is 2.5.

Coastal Water Temperatures

Place Temperature

Stations

Nearby Weather Stations

Station Location Temp. Windchill Dew Point Humidity Wind Precip. Elev Updated Type
                   

Watches & Warnings

Wind Chill Advisory
Issued: 3:03 PM CST Feb. 9, 2016 – National Weather Service

... Wind Chill Advisory in effect from 8 PM this evening to 9 am
CST Wednesday...

The National Weather Service in Duluth has issued a Wind Chill
Advisory... which is in effect from 8 PM this evening to 9 am CST
Wednesday.

* Locations... Minnesota arrowhead including Duluth... Hibbing...
Virginia... Ely... Two Harbors... and Grand Marais.

* Timing... tonight through Wednesday morning.

* Wind chill values... 25 to 35 below zero... approaching 40 below
zero across inland Cook County.

* Winds... north 5 to 10 mph with gusts up to 20 mph.

* Temperatures... 10 to 25 below zero.

* Impacts... dangerous wind chills can cause frostbite to develop
on exposed skin in as little as 15 to 30 minutes.

Precautionary/preparedness actions...

A Wind Chill Advisory means that very cold air and strong winds
will combine to generate low wind chills. This will result in
frost bite and lead to hypothermia if precautions are not taken.
If you must venture outdoors... make sure you wear a hat and
gloves.



Jjm